createdAt,value
2022-11-28T00:01:34.135Z,13.73
2022-11-28T00:04:00.920Z,12.75
2022-11-28T00:06:28.341Z,13.35
2022-11-28T00:08:57.370Z,13.15
2022-11-28T00:11:23.924Z,14.57
2022-11-28T00:13:50.698Z,14.35
2022-11-28T00:16:21.568Z,12.82
2022-11-28T00:18:50.034Z,15.68
2022-11-28T00:21:17.449Z,13.85
2022-11-28T00:23:46.057Z,13.95
2022-11-28T00:26:19.946Z,14.02
2022-11-28T00:28:47.507Z,10.75
2022-11-28T00:31:16.148Z,12.20
2022-11-28T00:33:43.148Z,12.73
2022-11-28T00:36:10.851Z,10.93
2022-11-28T00:38:38.084Z,12.20
2022-11-28T00:41:18.200Z,7.88
2022-11-28T00:43:46.684Z,9.20
2022-11-28T00:46:14.877Z,7.43
2022-11-28T00:48:41.572Z,8.05
2022-11-28T00:51:21.750Z,4.80
2022-11-28T00:53:49.970Z,8.48
2022-11-28T00:56:19.867Z,6.47
2022-11-28T00:58:49.288Z,7.82
2022-11-28T01:01:23.266Z,5.22
2022-11-28T01:03:51.632Z,5.65
2022-11-28T01:06:25.685Z,7.38
2022-11-28T01:08:53.053Z,6.15
2022-11-28T01:11:20.772Z,7.65
2022-11-28T01:13:48.264Z,4.60
2022-11-28T01:16:15.402Z,6.28
2022-11-28T01:18:42.451Z,7.32
2022-11-28T01:21:09.420Z,5.97
2022-11-28T01:23:36.034Z,5.80
2022-11-28T01:26:04.582Z,7.57
2022-11-28T01:28:31.195Z,5.18
2022-11-28T01:31:03.379Z,5.53
2022-11-28T01:33:30.029Z,5.32
2022-11-28T01:35:58.377Z,7.47
2022-11-28T01:38:25.932Z,6.45
2022-11-28T01:40:53.720Z,7.38
2022-11-28T01:43:21.035Z,6.90
2022-11-28T01:45:47.562Z,6.18
2022-11-28T01:48:18.616Z,8.02
2022-11-28T01:50:48.264Z,6.30
2022-11-28T01:53:15.730Z,6.70
2022-11-28T01:56:08.098Z,7.93
2022-11-28T01:58:38.736Z,6.40
2022-11-28T02:01:05.911Z,6.63
2022-11-28T02:03:43.819Z,7.40
2022-11-28T02:06:13.038Z,7.50
2022-11-28T02:08:39.745Z,7.47
2022-11-28T02:11:36.720Z,6.75
2022-11-28T02:14:15.310Z,8.55
2022-11-28T02:16:53.818Z,8.68
2022-11-28T02:19:54.267Z,6.93
2022-11-28T02:22:26.990Z,9.05
2022-11-28T02:25:20.819Z,8.55
2022-11-28T02:27:56.558Z,8.18
2022-11-28T02:31:08.021Z,8.13
2022-11-28T02:33:39.505Z,8.25
2022-11-28T02:36:24.124Z,8.77
2022-11-28T02:39:27.811Z,8.27
2022-11-28T02:42:02.642Z,8.68
2022-11-28T02:44:47.650Z,8.30
2022-11-28T02:47:34.062Z,6.78
2022-11-28T02:50:16.051Z,8.73
2022-11-28T02:52:47.060Z,6.82
2022-11-28T02:55:15.199Z,7.55
2022-11-28T02:57:48.074Z,7.13
2022-11-28T03:00:25.052Z,7.03
2022-11-28T03:03:08.733Z,10.73
2022-11-28T03:05:51.430Z,7.65
2022-11-28T03:08:32.431Z,9.30
2022-11-28T03:11:01.655Z,6.43
2022-11-28T03:14:06.154Z,6.85
2022-11-28T03:16:52.005Z,10.65
2022-11-28T03:19:18.507Z,9.50
2022-11-28T03:21:47.951Z,9.13
2022-11-28T03:24:39.625Z,6.50
2022-11-28T03:27:32.528Z,7.75
2022-11-28T03:30:08.658Z,7.18
2022-11-28T03:32:38.920Z,5.63
2022-11-28T03:35:14.631Z,6.57
2022-11-28T03:37:48.162Z,5.15
2022-11-28T03:40:20.660Z,4.70
2022-11-28T03:42:58.767Z,6.60
2022-11-28T03:45:28.881Z,4.60
2022-11-28T03:48:04.528Z,4.53
2022-11-28T03:50:44.699Z,3.80
2022-11-28T03:53:20.588Z,4.43
2022-11-28T03:56:16.634Z,4.80
2022-11-28T03:58:43.120Z,4.32
2022-11-28T04:01:25.423Z,4.55
2022-11-28T04:04:30.586Z,3.85
2022-11-28T04:07:23.764Z,4.53
2022-11-28T04:09:58.548Z,3.05
2022-11-28T04:12:39.246Z,4.95
2022-11-28T04:15:19.661Z,3.45
2022-11-28T04:18:02.472Z,2.83
2022-11-28T04:20:35.710Z,2.83
2022-11-28T04:23:08.373Z,3.33
2022-11-28T04:25:40.006Z,2.83
2022-11-28T04:28:13.334Z,3.67
2022-11-28T04:30:44.043Z,4.07
2022-11-28T04:33:14.242Z,3.00
2022-11-28T04:35:46.836Z,2.63
2022-11-28T04:38:14.556Z,2.78
2022-11-28T04:40:55.477Z,2.92
2022-11-28T04:43:28.865Z,2.30
2022-11-28T04:46:09.803Z,2.60
2022-11-28T04:48:36.477Z,2.00
2022-11-28T04:51:24.526Z,2.15
2022-11-28T04:54:22.562Z,2.28
2022-11-28T04:57:08.741Z,2.00
2022-11-28T04:59:35.945Z,1.70
2022-11-28T05:02:05.185Z,2.28
2022-11-28T05:04:35.967Z,1.83
2022-11-28T05:07:05.151Z,1.70
2022-11-28T05:09:32.029Z,1.92
2022-11-28T05:11:58.909Z,1.20
2022-11-28T05:14:25.606Z,1.83
2022-11-28T05:16:52.326Z,3.95
2022-11-28T05:19:19.237Z,1.30
2022-11-28T05:21:46.130Z,1.50
2022-11-28T05:24:12.942Z,0.82
2022-11-28T05:26:39.537Z,1.10
2022-11-28T05:29:06.298Z,1.42
2022-11-28T05:31:33.078Z,1.27
2022-11-28T05:33:59.663Z,1.50
2022-11-28T05:36:26.407Z,2.17
2022-11-28T05:38:53.027Z,2.05
2022-11-28T05:41:22.247Z,2.17
2022-11-28T05:43:49.089Z,1.95
2022-11-28T05:46:16.048Z,2.10
2022-11-28T05:48:42.833Z,2.05
2022-11-28T05:51:09.544Z,1.70
2022-11-28T05:53:36.761Z,2.15
2022-11-28T05:56:15.687Z,2.00
2022-11-28T05:58:42.516Z,1.80
2022-11-28T06:01:14.634Z,1.60
2022-11-28T06:03:42.287Z,1.85
2022-11-28T06:06:18.162Z,1.73
2022-11-28T06:08:45.399Z,2.03
2022-11-28T06:11:12.580Z,1.83
2022-11-28T06:13:39.196Z,1.70
2022-11-28T06:16:29.185Z,3.58
2022-11-28T06:18:58.019Z,3.40
2022-11-28T06:21:25.684Z,6.28
2022-11-28T06:23:52.937Z,3.65
2022-11-28T06:26:22.404Z,2.83
2022-11-28T06:28:49.295Z,2.83
2022-11-28T06:31:22.700Z,2.47
2022-11-28T06:33:50.273Z,4.70
2022-11-28T06:36:18.641Z,2.67
2022-11-28T06:38:45.659Z,4.43
2022-11-28T06:41:14.619Z,2.20
2022-11-28T06:43:41.620Z,3.60
2022-11-28T06:46:17.479Z,2.35
2022-11-28T06:48:45.126Z,1.85
2022-11-28T06:51:12.486Z,2.13
2022-11-28T06:53:39.476Z,2.78
2022-11-28T06:56:08.034Z,2.35
2022-11-28T06:58:35.451Z,2.40
2022-11-28T07:01:10.282Z,2.15
2022-11-28T07:03:38.541Z,2.03
2022-11-28T07:06:06.107Z,2.45
2022-11-28T07:08:33.652Z,2.60
2022-11-28T07:11:12.754Z,2.65
2022-11-28T07:13:40.502Z,2.63
2022-11-28T07:16:08.603Z,3.45
2022-11-28T07:18:35.438Z,2.28
2022-11-28T07:21:02.257Z,5.03
2022-11-28T07:23:29.060Z,4.50
2022-11-28T07:26:03.368Z,5.72
2022-11-28T07:28:31.321Z,6.50
2022-11-28T07:31:00.630Z,9.07
2022-11-28T07:33:28.183Z,11.40
2022-11-28T07:35:55.111Z,9.18
2022-11-28T07:38:21.669Z,10.18
2022-11-28T07:40:48.539Z,9.77
2022-11-28T07:43:15.051Z,8.95
2022-11-28T07:45:59.244Z,8.80
2022-11-28T07:48:27.284Z,7.82
2022-11-28T07:50:53.947Z,8.02
2022-11-28T07:53:20.552Z,6.40
2022-11-28T07:55:47.560Z,6.75
2022-11-28T07:58:14.142Z,5.88
2022-11-28T08:00:40.913Z,5.95
2022-11-28T08:03:07.578Z,6.22
2022-11-28T08:05:34.162Z,7.50
2022-11-28T08:08:00.949Z,6.10
2022-11-28T08:10:27.996Z,8.20
2022-11-28T08:12:54.549Z,4.97
2022-11-28T08:15:21.127Z,2.85
2022-11-28T08:17:47.762Z,2.92
2022-11-28T08:20:14.451Z,4.90
2022-11-28T08:22:41.194Z,2.60
2022-11-28T08:25:08.383Z,4.10
2022-11-28T08:27:35.058Z,4.47
2022-11-28T08:30:02.018Z,4.45
2022-11-28T08:32:30.122Z,4.10
2022-11-28T08:34:56.740Z,2.80
2022-11-28T08:37:23.385Z,1.95
2022-11-28T08:39:49.902Z,2.95
2022-11-28T08:42:16.505Z,3.90
2022-11-28T08:44:43.115Z,4.43
2022-11-28T08:47:09.681Z,5.00
2022-11-28T08:49:37.568Z,3.47
2022-11-28T08:52:05.381Z,3.38
2022-11-28T08:54:32.410Z,6.03
2022-11-28T08:56:59.151Z,6.20
2022-11-28T08:59:25.933Z,5.93
2022-11-28T09:01:55.550Z,2.88
2022-11-28T09:04:23.806Z,4.65
2022-11-28T09:06:51.079Z,1.58
2022-11-28T09:09:17.748Z,3.63
2022-11-28T09:11:44.657Z,3.40
2022-11-28T09:14:11.579Z,3.50
2022-11-28T09:16:39.606Z,3.75
2022-11-28T09:19:09.143Z,4.00
2022-11-28T09:21:35.990Z,4.82
2022-11-28T09:24:02.656Z,2.72
2022-11-28T09:26:30.093Z,5.07
2022-11-28T09:28:56.782Z,4.97
2022-11-28T09:31:23.642Z,4.90
2022-11-28T09:33:50.501Z,5.97
2022-11-28T09:36:20.291Z,2.72
2022-11-28T09:38:47.419Z,3.47
2022-11-28T09:41:32.909Z,4.55
2022-11-28T09:44:24.987Z,3.40
2022-11-28T09:46:55.078Z,4.30
2022-11-28T09:49:35.264Z,2.97
2022-11-28T09:52:34.029Z,4.95
2022-11-28T09:55:39.699Z,1.85
2022-11-28T09:58:18.603Z,1.70
2022-11-28T10:00:57.903Z,1.25
2022-11-28T10:03:36.804Z,1.63
2022-11-28T10:06:31.074Z,0.70
2022-11-28T10:09:16.385Z,0.75
2022-11-28T10:12:01.500Z,0.90
2022-11-28T10:14:43.010Z,0.75
2022-11-28T10:17:33.946Z,0.60
2022-11-28T10:20:11.029Z,1.10
2022-11-28T10:22:43.340Z,0.98
2022-11-28T10:25:18.095Z,0.85
2022-11-28T10:27:46.270Z,2.88
2022-11-28T10:30:23.502Z,1.42
2022-11-28T10:33:22.818Z,1.52
2022-11-28T10:36:00.706Z,3.80
2022-11-28T10:38:29.173Z,1.00
2022-11-28T10:41:25.429Z,1.70
2022-11-28T10:44:21.292Z,1.25
2022-11-28T10:47:13.720Z,1.02
2022-11-28T10:49:53.894Z,3.05
2022-11-28T10:52:36.266Z,1.30
2022-11-28T10:55:20.521Z,0.70
2022-11-28T10:58:04.397Z,3.28
2022-11-28T11:00:32.237Z,1.50
2022-11-28T11:03:02.355Z,4.10
2022-11-28T11:05:35.434Z,2.15
2022-11-28T11:08:04.080Z,1.58
2022-11-28T11:10:39.252Z,0.98
2022-11-28T11:13:19.628Z,1.20
2022-11-28T11:16:07.143Z,1.60
2022-11-28T11:18:53.967Z,1.10
2022-11-28T11:21:25.956Z,1.52
2022-11-28T11:24:15.941Z,0.90
2022-11-28T11:26:46.531Z,1.60
2022-11-28T11:29:30.283Z,3.00
2022-11-28T11:32:06.163Z,0.73
2022-11-28T11:34:42.984Z,0.47
2022-11-28T11:37:35.031Z,1.33
2022-11-28T11:40:04.927Z,0.60
2022-11-28T11:42:33.505Z,3.05
2022-11-28T11:45:25.841Z,0.77
2022-11-28T11:47:52.600Z,0.88
2022-11-28T11:50:22.593Z,2.53
2022-11-28T11:53:10.769Z,0.73
2022-11-28T11:55:48.288Z,0.95
2022-11-28T11:58:20.449Z,0.77
2022-11-28T12:00:47.181Z,1.23
2022-11-28T12:03:29.288Z,0.60
2022-11-28T12:06:29.270Z,0.60
2022-11-28T12:09:16.239Z,0.70
2022-11-28T12:11:54.273Z,0.88
2022-11-28T12:14:31.322Z,1.38
2022-11-28T12:20:24.362Z,1.15
2022-11-28T12:23:14.348Z,0.93
2022-11-28T12:26:14.755Z,0.93
2022-11-28T12:28:47.354Z,0.85
2022-11-28T12:31:22.915Z,1.23
2022-11-28T12:33:55.646Z,1.90
2022-11-28T12:36:44.491Z,1.25
2022-11-28T12:39:21.650Z,1.10
2022-11-28T12:42:10.264Z,4.80
2022-11-28T12:45:14.976Z,4.05
2022-11-28T12:48:17.397Z,3.30
2022-11-28T12:50:54.571Z,1.30
2022-11-28T12:53:36.649Z,1.25
2022-11-28T12:56:22.261Z,1.52
2022-11-28T12:58:57.553Z,0.93
2022-11-28T13:01:29.844Z,0.50
2022-11-28T13:04:21.120Z,1.45
2022-11-28T13:07:06.167Z,1.48
2022-11-28T13:09:58.082Z,0.60
2022-11-28T13:12:36.730Z,0.73
2022-11-28T13:15:29.187Z,1.65
2022-11-28T13:18:09.190Z,1.85
2022-11-28T13:20:51.329Z,3.05
2022-11-28T13:23:42.095Z,0.75
2022-11-28T13:26:25.009Z,0.80
2022-11-28T13:29:23.579Z,1.23
2022-11-28T13:32:14.437Z,0.70
2022-11-28T13:34:41.662Z,2.60
2022-11-28T13:40:28.664Z,0.60
2022-11-28T13:43:13.680Z,1.30
2022-11-28T13:45:46.164Z,2.20
2022-11-28T13:49:06.079Z,0.75
2022-11-28T13:51:31.083Z,0.80
2022-11-28T13:54:20.311Z,3.88
2022-11-28T13:56:48.065Z,0.85
2022-11-28T13:59:25.320Z,2.95
2022-11-28T14:02:01.338Z,1.23
2022-11-28T14:04:29.849Z,3.42
2022-11-28T14:07:03.953Z,1.30
2022-11-28T14:10:01.470Z,0.80
2022-11-28T14:12:55.420Z,1.70
2022-11-28T14:15:34.088Z,2.08
2022-11-28T14:18:54.293Z,1.55
2022-11-28T14:21:18.820Z,1.95
2022-11-28T14:23:59.373Z,1.23
2022-11-28T14:26:38.820Z,1.63
2022-11-28T14:29:18.919Z,4.45
2022-11-28T14:32:13.817Z,0.70
2022-11-28T14:34:42.591Z,0.93
2022-11-28T14:37:21.868Z,2.05
2022-11-28T14:39:49.541Z,0.80
2022-11-28T14:42:36.911Z,1.00
2022-11-28T14:45:23.925Z,1.75
2022-11-28T14:48:24.259Z,4.07
2022-11-28T14:50:59.307Z,2.97
2022-11-28T14:53:34.259Z,3.55
2022-11-28T14:56:16.154Z,1.98
2022-11-28T14:58:56.154Z,3.42
2022-11-28T15:01:30.014Z,5.68
2022-11-28T15:04:22.826Z,2.17
2022-11-28T15:06:50.388Z,1.50
2022-11-28T15:09:25.163Z,4.53
2022-11-28T15:12:20.266Z,2.25
2022-11-28T15:14:54.884Z,3.33
2022-11-28T15:17:28.600Z,2.22
2022-11-28T15:19:57.944Z,2.03
2022-11-28T15:22:51.978Z,1.55
2022-11-28T15:25:27.715Z,3.33
2022-11-28T15:27:55.538Z,1.27
2022-11-28T15:30:26.691Z,1.80
2022-11-28T15:32:59.743Z,1.20
2022-11-28T15:35:27.442Z,1.73
2022-11-28T15:37:57.233Z,1.52
2022-11-28T15:40:34.292Z,1.50
2022-11-28T15:43:06.609Z,2.25
2022-11-28T15:45:37.009Z,4.45
2022-11-28T15:48:04.752Z,1.85
2022-11-28T15:50:33.953Z,1.50
2022-11-28T15:53:15.501Z,1.40
2022-11-28T15:55:42.228Z,4.35
2022-11-28T15:58:17.867Z,1.50
2022-11-28T16:00:48.026Z,3.83
2022-11-28T16:03:21.984Z,2.28
2022-11-28T16:05:51.784Z,2.10
2022-11-28T16:08:32.449Z,1.95
2022-11-28T16:11:01.764Z,2.13
2022-11-28T16:13:29.463Z,2.78
2022-11-28T16:15:58.546Z,0.80
2022-11-28T16:18:27.488Z,0.85
2022-11-28T16:20:55.371Z,4.18
2022-11-28T16:23:30.228Z,0.95
2022-11-28T16:26:08.243Z,3.47
2022-11-28T16:28:40.826Z,0.77
2022-11-28T16:31:12.434Z,1.90
2022-11-28T16:33:41.969Z,5.38
2022-11-28T16:36:20.453Z,3.05
2022-11-28T16:38:48.816Z,1.45
2022-11-28T16:41:23.533Z,2.58
2022-11-28T16:43:55.605Z,1.70
2022-11-28T16:46:25.705Z,2.65
2022-11-28T16:48:58.095Z,4.13
2022-11-28T16:51:30.832Z,2.88
2022-11-28T16:54:01.311Z,3.90
2022-11-28T16:56:31.337Z,6.22
2022-11-28T16:59:12.956Z,3.65
2022-11-28T17:01:41.656Z,4.43
2022-11-28T17:04:28.993Z,5.88
2022-11-28T17:06:58.018Z,7.13
2022-11-28T17:09:24.898Z,6.88
2022-11-28T17:12:03.095Z,3.88
2022-11-28T17:14:29.945Z,5.88
2022-11-28T17:16:56.502Z,9.68
2022-11-28T17:19:23.153Z,6.00
2022-11-28T17:21:57.294Z,5.28
2022-11-28T17:24:26.711Z,2.90
2022-11-28T17:26:55.045Z,3.15
2022-11-28T17:29:22.541Z,2.55
2022-11-28T17:31:49.579Z,3.60
2022-11-28T17:34:19.472Z,3.30
2022-11-28T17:36:47.642Z,7.13
2022-11-28T17:39:15.470Z,2.97
2022-11-28T17:41:42.369Z,3.55
2022-11-28T17:44:32.622Z,3.30
2022-11-28T17:47:02.297Z,2.15
2022-11-28T17:49:30.734Z,2.50
2022-11-28T17:51:57.816Z,2.60
2022-11-28T17:54:26.586Z,7.68
2022-11-28T17:56:54.285Z,2.08
2022-11-28T17:59:23.245Z,2.70
2022-11-28T18:01:50.213Z,2.53
2022-11-28T18:04:16.804Z,1.83
2022-11-28T18:06:45.325Z,4.20
2022-11-28T18:09:12.646Z,2.72
2022-11-28T18:11:40.537Z,3.15
2022-11-28T18:14:07.466Z,3.05
2022-11-28T18:16:36.279Z,3.22
2022-11-28T18:19:04.107Z,2.72
2022-11-28T18:21:31.553Z,3.92
2022-11-28T18:23:58.444Z,3.75
2022-11-28T18:26:26.291Z,2.67
2022-11-28T18:28:53.643Z,4.63
2022-11-28T18:31:26.301Z,2.15
2022-11-28T18:33:58.755Z,2.15
2022-11-28T18:36:29.790Z,3.30
2022-11-28T18:39:01.124Z,4.43
2022-11-28T18:41:28.848Z,2.13
2022-11-28T18:44:00.926Z,2.53
2022-11-28T18:46:29.398Z,3.45
2022-11-28T18:48:56.733Z,2.67
2022-11-28T18:51:32.025Z,2.63
2022-11-28T18:53:59.171Z,0.60
2022-11-28T18:56:27.078Z,12.20
2022-11-28T18:58:54.548Z,11.80
2022-11-28T19:01:30.608Z,10.95
2022-11-28T19:04:03.800Z,12.13
2022-11-28T19:06:31.008Z,8.68
2022-11-28T19:09:00.443Z,9.80
2022-11-28T19:11:28.838Z,8.13
2022-11-28T19:13:56.123Z,8.23
2022-11-28T19:16:28.110Z,7.00
2022-11-28T19:18:55.658Z,6.43
2022-11-28T19:21:24.526Z,5.28
2022-11-28T19:23:52.035Z,5.85
2022-11-28T19:26:21.945Z,8.90
2022-11-28T19:28:49.111Z,5.30
2022-11-28T19:31:21.275Z,3.97
2022-11-28T19:34:00.528Z,4.43
2022-11-28T19:36:30.247Z,2.35
2022-11-28T19:38:57.649Z,3.83
2022-11-28T19:41:24.230Z,2.88
2022-11-28T19:43:51.866Z,5.22
2022-11-28T19:46:19.346Z,4.13
2022-11-28T19:48:46.284Z,2.67
2022-11-28T19:51:13.763Z,2.45
2022-11-28T19:53:42.812Z,2.03
2022-11-28T19:56:16.033Z,1.63
2022-11-28T19:58:43.278Z,1.15
2022-11-28T20:01:15.809Z,0.80
2022-11-28T20:03:43.822Z,1.17
2022-11-28T20:06:16.400Z,0.60
2022-11-28T20:08:43.106Z,2.00
2022-11-28T20:11:13.782Z,0.57
2022-11-28T20:13:41.785Z,1.20
2022-11-28T20:16:10.094Z,1.10
2022-11-28T20:18:41.705Z,1.10
2022-11-28T20:21:10.848Z,1.15
2022-11-28T20:23:42.918Z,2.35
2022-11-28T20:26:10.791Z,1.42
2022-11-28T20:28:39.170Z,0.93
2022-11-28T20:31:06.885Z,0.50
2022-11-28T20:33:33.962Z,1.38
2022-11-28T20:36:13.695Z,0.60
2022-11-28T20:38:40.308Z,0.50
2022-11-28T20:41:08.902Z,0.98
2022-11-28T20:43:37.980Z,0.45
2022-11-28T20:46:08.323Z,0.40
2022-11-28T20:48:35.054Z,0.80
2022-11-28T20:51:02.042Z,0.60
2022-11-28T20:53:28.731Z,0.50
2022-11-28T20:56:03.296Z,0.60
2022-11-28T20:58:30.931Z,0.82
2022-11-28T21:00:58.131Z,0.52
2022-11-28T21:03:25.470Z,1.20
2022-11-28T21:05:56.507Z,0.40
2022-11-28T21:08:30.492Z,0.45
2022-11-28T21:10:57.390Z,0.50
2022-11-28T21:13:24.246Z,0.32
2022-11-28T21:15:51.059Z,0.22
2022-11-28T21:18:18.018Z,0.30
2022-11-28T21:20:46.141Z,0.40
2022-11-28T21:23:14.591Z,0.80
2022-11-28T21:25:42.794Z,0.60
2022-11-28T21:28:10.372Z,0.50
2022-11-28T21:30:45.777Z,0.40
2022-11-28T21:33:12.862Z,0.52
2022-11-28T21:35:40.300Z,0.43
2022-11-28T21:38:08.187Z,2.47
2022-11-28T21:40:34.832Z,0.93
2022-11-28T21:43:01.871Z,0.50
2022-11-28T21:45:28.708Z,1.85
2022-11-28T21:47:55.419Z,1.05
2022-11-28T21:50:22.049Z,1.15
2022-11-28T21:52:48.710Z,1.60
2022-11-28T21:55:15.329Z,2.90
2022-11-28T21:57:42.421Z,2.05
2022-11-28T22:00:20.711Z,5.60
2022-11-28T22:03:02.908Z,3.03
2022-11-28T22:05:32.850Z,4.95
2022-11-28T22:07:59.472Z,3.67
2022-11-28T22:10:26.523Z,2.80
2022-11-28T22:12:53.729Z,3.53
2022-11-28T22:15:20.771Z,3.33
2022-11-28T22:17:47.543Z,2.00
2022-11-28T22:20:14.178Z,2.42
2022-11-28T22:22:40.781Z,1.50
2022-11-28T22:25:07.760Z,3.45
2022-11-28T22:27:35.679Z,1.55
2022-11-28T22:30:02.410Z,2.08
2022-11-28T22:32:29.006Z,2.67
2022-11-28T22:34:55.596Z,3.45
2022-11-28T22:37:22.359Z,2.33
2022-11-28T22:39:48.992Z,1.90
2022-11-28T22:42:15.642Z,2.00
2022-11-28T22:44:44.776Z,1.58
2022-11-28T22:47:11.521Z,0.95
2022-11-28T22:49:38.109Z,1.10
2022-11-28T22:52:04.879Z,1.15
2022-11-28T22:54:31.645Z,2.65
2022-11-28T22:56:58.622Z,2.15
2022-11-28T22:59:25.257Z,1.85
2022-11-28T23:01:52.314Z,6.93
2022-11-28T23:04:19.380Z,5.88
2022-11-28T23:06:46.160Z,5.60
2022-11-28T23:09:14.251Z,4.20
2022-11-28T23:11:41.246Z,5.13
2022-11-28T23:14:07.964Z,3.85
2022-11-28T23:16:37.142Z,5.65
2022-11-28T23:19:15.955Z,5.53
2022-11-28T23:21:44.981Z,5.38
2022-11-28T23:24:17.894Z,4.47
2022-11-28T23:26:44.927Z,2.55
2022-11-28T23:29:11.605Z,2.30
2022-11-28T23:31:40.918Z,2.38
2022-11-28T23:34:08.736Z,1.20
2022-11-28T23:36:42.183Z,0.80
2022-11-28T23:39:27.845Z,2.88
2022-11-28T23:41:55.522Z,1.25
2022-11-28T23:44:22.038Z,0.85
2022-11-28T23:46:48.975Z,0.93
2022-11-28T23:49:15.845Z,0.60
2022-11-28T23:51:42.581Z,0.70
2022-11-28T23:54:10.778Z,0.50
2022-11-28T23:56:39.083Z,0.60
2022-11-28T23:59:07.540Z,0.50
